Time;durP1;ratioP1;P1;durP2;ratioP2;P2;SDS_P1;SDS_P2;PMS_P1;PMS_P2;Temp;Humidity;BMP_temperature;BMP_pressure;BME280_temperature;BME280_humidity;BME280_pressure;Samples;Min_cycle;Max_cycle;Signal;HPM_P1;HPM_P2
2022/07/02 00:02:01;;;;;;;5.05;2.80;;;12.60;99.90;;;;;;5056423;28;20080;-68
2022/07/02 00:04:47;;;;;;;7.63;3.45;;;12.70;99.90;;;;;;5054159;28;20052;-68
2022/07/02 00:07:19;;;;;;;7.63;3.22;;;12.70;99.90;;;;;;5057024;28;20049;-69
2022/07/02 00:09:57;;;;;;;6.45;3.10;;;12.60;99.90;;;;;;5063352;28;20403;-69
2022/07/02 00:12:28;;;;;;;5.45;3.70;;;12.60;99.90;;;;;;5056646;28;20033;-68
2022/07/02 00:15:01;;;;;;;5.55;3.58;;;12.50;99.90;;;;;;5057254;28;20037;-69
2022/07/02 00:17:33;;;;;;;9.18;4.35;;;12.50;99.90;;;;;;5094878;28;20127;-68
2022/07/02 00:20:01;;;;;;;9.98;4.45;;;12.40;99.90;;;;;;5075904;28;20040;-69
2022/07/02 00:22:54;;;;;;;8.60;4.85;;;12.50;99.90;;;;;;5095063;28;20421;-68
2022/07/02 00:25:36;;;;;;;8.52;4.60;;;12.40;99.90;;;;;;5066210;28;20083;-68
2022/07/02 00:28:12;;;;;;;8.02;4.50;;;12.40;99.90;;;;;;5076637;28;20036;-68
2022/07/02 00:30:48;;;;;;;7.63;5.05;;;12.40;99.90;;;;;;5094288;28;20383;-67
2022/07/02 00:33:19;;;;;;;8.02;5.30;;;12.40;99.90;;;;;;5094352;28;20036;-69
2022/07/02 00:35:50;;;;;;;17.20;5.47;;;12.30;99.90;;;;;;5093410;28;20119;-70
2022/07/02 00:38:19;;;;;;;9.88;5.55;;;12.40;99.90;;;;;;5094306;28;20097;-69
2022/07/02 00:40:47;;;;;;;7.03;4.65;;;12.40;99.90;;;;;;5076161;28;20126;-69
2022/07/02 00:43:20;;;;;;;9.80;5.63;;;12.40;99.90;;;;;;5076080;28;20556;-69
2022/07/02 00:45:50;;;;;;;11.98;6.15;;;12.40;99.90;;;;;;5076214;28;20092;-68
2022/07/02 00:48:22;;;;;;;8.68;4.97;;;12.40;99.90;;;;;;5076187;28;20040;-69
2022/07/02 00:50:56;;;;;;;9.13;6.00;;;12.50;99.90;;;;;;5055697;28;20126;-68
2022/07/02 00:53:25;;;;;;;7.63;6.13;;;12.40;99.90;;;;;;5093472;28;20048;-67
2022/07/02 00:56:17;;;;;;;10.27;6.10;;;12.50;99.90;;;;;;5076065;28;20075;-68
2022/07/02 00:58:52;;;;;;;7.13;5.55;;;12.50;99.90;;;;;;5076281;28;20377;-67
2022/07/02 01:01:18;;;;;;;11.35;6.05;;;12.50;99.90;;;;;;5076008;28;20447;-72
2022/07/02 01:03:53;;;;;;;9.20;5.70;;;12.50;99.90;;;;;;5056341;28;20533;-67
2022/07/02 01:06:33;;;;;;;8.85;5.95;;;12.60;99.90;;;;;;5075645;28;20044;-69
2022/07/02 01:11:53;;;;;;;9.95;5.65;;;12.60;99.90;;;;;;5093276;28;20048;-67
2022/07/02 01:14:25;;;;;;;11.68;6.93;;;12.60;99.90;;;;;;5075979;28;20044;-68
2022/07/02 01:16:55;;;;;;;10.93;7.18;;;12.60;99.90;;;;;;5077660;28;20102;-68
2022/07/02 01:19:27;;;;;;;10.85;7.60;;;12.70;99.90;;;;;;5074161;28;20084;-68
2022/07/02 01:22:19;;;;;;;13.80;9.05;;;12.70;99.90;;;;;;5075358;28;20039;-68
2022/07/02 01:25:06;;;;;;;14.38;9.27;;;12.70;99.90;;;;;;5091484;28;20048;-68
2022/07/02 01:27:36;;;;;;;18.35;10.25;;;12.80;99.90;;;;;;5093545;28;20047;-69
2022/07/02 01:30:09;;;;;;;18.17;11.13;;;12.80;99.90;;;;;;5091684;28;20040;-68
2022/07/02 01:32:36;;;;;;;17.00;12.45;;;12.80;99.90;;;;;;5090797;28;20396;-68
2022/07/02 01:35:28;;;;;;;21.08;13.43;;;12.80;99.90;;;;;;5072391;28;20477;-67
2022/07/02 01:37:56;;;;;;;21.70;14.05;;;12.80;99.90;;;;;;5072108;28;20032;-68
2022/07/02 01:40:25;;;;;;;20.58;12.93;;;12.80;99.90;;;;;;5093186;28;20032;-68
2022/07/02 01:42:51;;;;;;;22.83;13.40;;;12.80;99.90;;;;;;5057885;28;20110;-67
2022/07/02 01:45:29;;;;;;;20.05;13.32;;;12.80;99.90;;;;;;5072838;28;20111;-68
2022/07/02 01:47:55;;;;;;;21.50;12.23;;;12.80;99.90;;;;;;5053594;28;20290;-68
2022/07/02 01:50:23;;;;;;;23.67;13.25;;;12.80;99.90;;;;;;5055270;28;20109;-67
2022/07/02 01:53:04;;;;;;;22.75;13.30;;;12.80;99.90;;;;;;5053010;28;20481;-68
2022/07/02 01:55:30;;;;;;;20.88;13.18;;;12.90;99.90;;;;;;5071880;28;20041;-68
2022/07/02 01:57:59;;;;;;;18.42;12.43;;;12.80;99.90;;;;;;5054719;28;20037;-68
2022/07/02 02:00:31;;;;;;;18.15;11.55;;;12.80;99.90;;;;;;5071553;28;20079;-69
2022/07/02 02:02:58;;;;;;;17.95;10.18;;;12.80;99.90;;;;;;5072370;28;20044;-68
2022/07/02 02:05:24;;;;;;;16.83;9.85;;;12.80;99.90;;;;;;5069261;28;20070;-68
2022/07/02 02:07:56;;;;;;;13.95;7.97;;;12.80;99.90;;;;;;5054647;28;20047;-68
2022/07/02 02:10:36;;;;;;;14.10;8.27;;;12.80;99.90;;;;;;5054049;28;20048;-67
2022/07/02 02:13:07;;;;;;;10.40;7.13;;;12.80;99.90;;;;;;5072138;28;20029;-72
2022/07/02 02:15:37;;;;;;;13.98;7.72;;;12.90;99.90;;;;;;5054402;28;20072;-69
2022/07/02 02:18:10;;;;;;;7.97;6.95;;;12.90;99.90;;;;;;5072237;28;20029;-67
2022/07/02 02:20:48;;;;;;;10.40;7.63;;;12.90;99.90;;;;;;5054479;28;20044;-68
2022/07/02 02:23:14;;;;;;;14.15;7.40;;;12.90;99.90;;;;;;5054541;28;20102;-68
2022/07/02 02:25:44;;;;;;;11.55;6.68;;;12.90;99.90;;;;;;5053243;28;20044;-68
2022/07/02 02:28:20;;;;;;;12.03;7.27;;;12.90;99.90;;;;;;5068959;28;20466;-67
2022/07/02 02:33:45;;;;;;;13.43;7.20;;;12.90;99.90;;;;;;5041522;28;20139;-68
2022/07/02 02:36:35;;;;;;;9.30;6.40;;;12.90;99.90;;;;;;5054163;28;20040;-69
2022/07/02 02:39:01;;;;;;;14.65;7.07;;;12.90;99.90;;;;;;5071205;28;20076;-69
2022/07/02 02:41:33;;;;;;;13.43;6.85;;;12.90;99.90;;;;;;5054028;28;20508;-67
2022/07/02 02:44:07;;;;;;;9.82;6.57;;;12.90;99.90;;;;;;5071565;28;20040;-69
2022/07/02 02:46:36;;;;;;;10.50;6.30;;;12.90;99.90;;;;;;5054040;28;20048;-68
2022/07/02 02:49:10;;;;;;;7.25;5.95;;;12.90;99.90;;;;;;5050985;28;20055;-68
2022/07/02 02:51:42;;;;;;;10.32;6.60;;;12.90;99.90;;;;;;5053230;28;20048;-68
2022/07/02 02:54:25;;;;;;;11.25;6.13;;;12.90;99.90;;;;;;5054883;28;20042;-67
2022/07/02 02:56:56;;;;;;;14.10;6.97;;;12.90;99.90;;;;;;5036737;28;20060;-68
2022/07/02 02:59:29;;;;;;;13.80;6.63;;;12.80;99.90;;;;;;5037510;28;20501;-67
2022/07/02 03:02:04;;;;;;;11.23;7.70;;;12.80;99.90;;;;;;5052035;28;20048;-70
2022/07/02 03:04:41;;;;;;;11.00;6.13;;;12.80;99.90;;;;;;5052146;28;20464;-68
2022/07/02 03:07:08;;;;;;;11.80;6.95;;;12.80;99.90;;;;;;5053755;28;20041;-68
2022/07/02 03:09:37;;;;;;;10.93;7.65;;;12.80;99.90;;;;;;5053846;28;20040;-67
2022/07/02 03:12:20;;;;;;;13.73;7.45;;;12.80;99.90;;;;;;5086987;28;20037;-68
2022/07/02 03:14:50;;;;;;;9.48;7.00;;;12.70;99.90;;;;;;5048834;28;20037;-68
2022/07/02 03:17:30;;;;;;;10.52;6.78;;;12.70;99.90;;;;;;5019658;28;20116;-67
2022/07/02 03:20:16;;;;;;;12.82;6.78;;;12.70;99.90;;;;;;5017394;28;20052;-67
2022/07/02 03:23:02;;;;;;;11.30;7.68;;;12.70;99.90;;;;;;5032188;28;20044;-67
2022/07/02 03:25:34;;;;;;;13.93;7.10;;;12.70;99.90;;;;;;5033529;28;20517;-67
2022/07/02 03:28:00;;;;;;;10.48;7.10;;;12.70;99.90;;;;;;5033644;28;20049;-68
2022/07/02 03:30:47;;;;;;;10.95;7.00;;;12.60;99.90;;;;;;5037890;28;20118;-68
2022/07/02 03:33:17;;;;;;;13.40;7.88;;;12.60;99.90;;;;;;5051296;28;20041;-69
2022/07/02 03:35:46;;;;;;;;;;;12.50;99.90;;;;;;5032126;28;20036;-67
2022/07/02 03:38:15;;;;;;;12.65;6.80;;;12.50;99.90;;;;;;5017084;28;19923;-68
2022/07/02 03:40:57;;;;;;;13.80;7.75;;;12.50;99.90;;;;;;5033789;28;20375;-66
2022/07/02 03:43:26;;;;;;;11.13;8.10;;;12.60;99.90;;;;;;5017117;28;20146;-67
2022/07/02 03:46:05;;;;;;;9.07;6.10;;;12.60;99.90;;;;;;5033357;28;20106;-67
2022/07/02 03:48:35;;;;;;;10.77;7.22;;;12.60;99.90;;;;;;5050983;28;20128;-68
2022/07/02 03:51:10;;;;;;;12.60;7.63;;;12.60;99.90;;;;;;5034142;28;20119;-66
2022/07/02 03:53:48;;;;;;;11.70;7.97;;;12.60;99.90;;;;;;5017019;28;20039;-66
2022/07/02 03:56:50;;;;;;;11.50;8.23;;;12.60;99.90;;;;;;5038406;28;20501;-69
2022/07/02 03:59:30;;;;;;;14.77;9.50;;;12.60;99.90;;;;;;5055111;28;20029;-67
2022/07/02 04:02:07;;;;;;;15.77;9.20;;;12.60;99.90;;;;;;5020862;28;20053;-67
2022/07/02 04:04:40;;;;;;;18.45;9.18;;;12.60;99.90;;;;;;5019805;28;20128;-69
2022/07/02 04:07:12;;;;;;;14.27;9.73;;;12.60;99.90;;;;;;5037909;28;20048;-68
2022/07/02 04:09:41;;;;;;;13.90;9.32;;;12.70;99.90;;;;;;5037651;28;20095;-68
2022/07/02 04:12:25;;;;;;;14.55;9.38;;;12.70;99.90;;;;;;5055639;28;20425;-68
2022/07/02 04:15:10;;;;;;;13.98;9.52;;;12.80;99.90;;;;;;5038595;28;20037;-68
2022/07/02 04:18:00;;;;;;;15.73;9.23;;;12.80;99.90;;;;;;5073200;28;20124;-68
2022/07/02 04:20:29;;;;;;;12.20;9.68;;;12.90;99.90;;;;;;5075670;28;20437;-70
2022/07/02 04:23:21;;;;;;;16.05;9.95;;;12.90;99.90;;;;;;5057524;28;20044;-69
2022/07/02 04:25:47;;;;;;;15.65;10.20;;;12.90;99.90;;;;;;5040715;28;20052;-69
2022/07/02 04:28:27;;;;;;;14.40;10.65;;;13.00;99.90;;;;;;5075392;28;20041;-68
2022/07/02 04:31:10;;;;;;;13.18;9.43;;;13.00;99.90;;;;;;5057473;28;20400;-68
2022/07/02 04:33:38;;;;;;;14.23;10.18;;;13.00;99.90;;;;;;5072966;28;20501;-68
2022/07/02 04:36:32;;;;;;;17.23;9.98;;;13.10;99.90;;;;;;5074405;28;20183;-68
2022/07/02 04:39:16;;;;;;;14.95;9.82;;;13.10;99.90;;;;;;5057275;28;20043;-67
2022/07/02 04:41:46;;;;;;;11.32;9.20;;;13.20;99.90;;;;;;5039652;28;20048;-69
2022/07/02 04:44:12;;;;;;;13.37;9.03;;;13.20;99.90;;;;;;5039465;28;20182;-68
2022/07/02 04:46:55;;;;;;;12.45;8.90;;;13.30;99.90;;;;;;5071907;28;20051;-67
2022/07/02 04:52:30;;;;;;;11.02;8.65;;;13.40;99.90;;;;;;5050687;28;20060;-68
2022/07/02 04:54:59;;;;;;;10.32;8.32;;;13.50;99.90;;;;;;5074022;28;20041;-69
2022/07/02 04:57:29;;;;;;;10.93;8.02;;;13.60;99.90;;;;;;5052455;28;20475;-68
2022/07/02 05:00:21;;;;;;;9.50;7.80;;;13.60;99.90;;;;;;5074381;28;20044;-67
2022/07/02 05:02:53;;;;;;;12.77;8.40;;;13.70;99.90;;;;;;5053219;28;20064;-68
2022/07/02 05:05:27;;;;;;;12.32;7.97;;;13.80;99.90;;;;;;5051774;28;20048;-67
2022/07/02 05:07:53;;;;;;;12.60;6.95;;;13.80;99.90;;;;;;5054061;28;20138;-68
2022/07/02 05:10:23;;;;;;;13.90;7.38;;;13.90;99.90;;;;;;5053486;28;20037;-68
2022/07/02 05:12:50;;;;;;;9.43;6.20;;;14.00;99.90;;;;;;5054403;28;20044;-68
2022/07/02 05:15:18;;;;;;;9.03;5.87;;;14.20;99.90;;;;;;5053703;28;20129;-67
2022/07/02 05:17:55;;;;;;;9.73;5.85;;;14.20;99.90;;;;;;5054271;28;20307;-68
2022/07/02 05:20:21;;;;;;;9.77;6.95;;;14.30;99.90;;;;;;5054265;28;20041;-67
2022/07/02 05:22:52;;;;;;;10.05;6.60;;;14.30;99.90;;;;;;5052962;28;20731;-68
2022/07/02 05:25:21;;;;;;;9.95;7.30;;;14.40;99.90;;;;;;5053014;28;20106;-70
2022/07/02 05:27:47;;;;;;;8.77;6.03;;;14.50;99.90;;;;;;5054062;28;20036;-68
2022/07/02 05:30:13;;;;;;;10.93;7.05;;;14.60;99.90;;;;;;5052850;28;20045;-69
2022/07/02 05:32:38;;;;;;;10.23;5.88;;;14.60;99.90;;;;;;5053940;28;20132;-68
2022/07/02 05:35:08;;;;;;;12.40;6.63;;;14.70;99.90;;;;;;5050787;28;20045;-70
2022/07/02 05:37:35;;;;;;;7.43;5.55;;;14.80;99.90;;;;;;5052677;28;20163;-69
2022/07/02 05:40:01;;;;;;;11.70;5.78;;;14.90;99.90;;;;;;5052778;28;20067;-70
2022/07/02 05:42:27;;;;;;;8.20;5.47;;;14.90;99.90;;;;;;5052971;28;20037;-69
2022/07/02 05:44:59;;;;;;;8.73;5.40;;;15.00;99.90;;;;;;5052554;28;20565;-70
2022/07/02 05:47:31;;;;;;;11.00;4.82;;;15.10;99.90;;;;;;5052565;28;20086;-69
2022/07/02 05:50:03;;;;;;;8.75;5.50;;;15.20;99.90;;;;;;5035619;28;20049;-69
2022/07/02 05:52:29;;;;;;;8.60;5.15;;;15.30;99.90;;;;;;5051581;28;20049;-69
2022/07/02 05:55:05;;;;;;;8.43;4.75;;;15.40;99.90;;;;;;5051581;28;20063;-68
2022/07/02 05:57:34;;;;;;;8.25;4.32;;;15.50;99.90;;;;;;5051679;28;20041;-68
2022/07/02 06:00:00;;;;;;;8.70;5.15;;;15.60;99.90;;;;;;5051463;28;20399;-69
2022/07/02 06:02:26;;;;;;;8.63;4.63;;;15.70;99.90;;;;;;5034733;28;20055;-70
2022/07/02 06:04:52;;;;;;;8.80;4.60;;;15.70;99.90;;;;;;5050250;28;20045;-69
2022/07/02 06:10:02;;;;;;;6.10;4.43;;;15.90;99.90;;;;;;5052316;28;20048;-69
2022/07/02 06:12:28;;;;;;;9.27;4.45;;;16.00;99.90;;;;;;5050968;28;20515;-68
2022/07/02 06:14:54;;;;;;;9.63;4.18;;;16.10;99.90;;;;;;5033809;28;20044;-70
2022/07/02 06:17:20;;;;;;;7.20;4.40;;;16.20;99.90;;;;;;5030829;28;20045;-71
2022/07/02 06:19:48;;;;;;;6.00;3.58;;;16.30;99.90;;;;;;5014618;28;20318;-68
2022/07/02 06:22:14;;;;;;;7.70;3.20;;;16.50;99.90;;;;;;5031341;28;20080;-67
2022/07/02 06:24:40;;;;;;;11.15;4.90;;;16.60;99.90;;;;;;5031255;28;20458;-67
2022/07/02 06:27:06;;;;;;;6.22;3.38;;;16.70;99.90;;;;;;5030921;28;20049;-70
2022/07/02 06:29:32;;;;;;;10.52;3.15;;;16.90;99.90;;;;;;5030841;28;20487;-68
2022/07/02 06:31:58;;;;;;;5.25;2.42;;;17.00;99.90;;;;;;5032066;28;20048;-68
2022/07/02 06:34:24;;;;;;;4.88;2.42;;;17.30;99.90;;;;;;5028541;28;20052;-68
2022/07/02 06:36:50;;;;;;;5.13;2.55;;;17.50;99.90;;;;;;5014665;28;20124;-68
2022/07/02 06:39:16;;;;;;;5.18;2.53;;;17.70;99.90;;;;;;5030413;28;20096;-69
2022/07/02 06:44:26;;;;;;;7.03;2.25;;;18.10;99.90;;;;;;5031386;28;20195;-69
2022/07/02 06:46:52;;;;;;;5.75;2.00;;;18.20;99.90;;;;;;5015035;28;20502;-70
2022/07/02 06:49:18;;;;;;;8.43;3.28;;;18.40;99.90;;;;;;5031379;28;20391;-69
2022/07/02 06:51:45;;;;;;;5.05;2.00;;;18.60;99.90;;;;;;5031524;28;20066;-69
2022/07/02 06:54:11;;;;;;;6.10;2.08;;;18.70;99.90;;;;;;5031245;28;20474;-70
2022/07/02 06:56:37;;;;;;;5.10;1.98;;;18.80;99.90;;;;;;5030185;28;20069;-68
2022/07/02 06:59:07;;;;;;;7.13;1.80;;;19.00;99.90;;;;;;5030736;28;20380;-69
2022/07/02 07:01:33;;;;;;;5.05;2.05;;;19.10;99.90;;;;;;5031142;28;20037;-69
2022/07/02 07:03:59;;;;;;;6.78;1.88;;;19.30;99.90;;;;;;5069272;28;20052;-69
2022/07/02 07:06:34;;;;;;;4.50;2.33;;;19.50;99.90;;;;;;5037388;28;20048;-69
2022/07/02 07:09:00;;;;;;;5.45;2.20;;;19.70;99.90;;;;;;5071338;28;20048;-68
2022/07/02 07:11:26;;;;;;;6.72;2.15;;;19.80;99.90;;;;;;5053833;28;20055;-68
2022/07/02 07:13:52;;;;;;;6.72;2.47;;;19.90;99.90;;;;;;5071669;28;20029;-69
2022/07/02 07:16:18;;;;;;;4.43;1.92;;;19.90;99.90;;;;;;5053776;28;20406;-69
2022/07/02 07:19:00;;;;;;;6.10;2.05;;;20.00;99.90;;;;;;5053552;28;20044;-68
2022/07/02 07:21:26;;;;;;;6.95;1.85;;;20.20;99.90;;;;;;5053573;28;20150;-68
2022/07/02 07:23:52;;;;;;;5.07;1.65;;;20.50;99.90;;;;;;5053718;28;20213;-68
2022/07/02 07:26:17;;;;;;;5.70;2.35;;;20.50;99.90;;;;;;5053481;28;20054;-70
2022/07/02 07:28:44;;;;;;;5.65;2.17;;;20.60;99.90;;;;;;5051943;28;20051;-68
2022/07/02 07:31:10;;;;;;;6.82;2.35;;;20.70;99.90;;;;;;5057473;28;20044;-68
2022/07/02 07:33:37;;;;;;;7.13;2.72;;;20.60;99.90;;;;;;5038369;28;20489;-72
2022/07/02 07:36:04;;;;;;;5.25;2.15;;;20.60;99.90;;;;;;5057393;28;20032;-69
2022/07/02 07:38:30;;;;;;;3.80;1.50;;;20.50;99.90;;;;;;5057220;28;20097;-69
2022/07/02 07:40:55;;;;;;;7.32;1.98;;;20.60;99.90;;;;;;5075055;28;20044;-68
2022/07/02 07:43:21;;;;;;;6.00;1.70;;;20.80;99.90;;;;;;5040474;28;20074;-70
2022/07/02 07:45:47;;;;;;;7.68;2.15;;;21.10;99.90;;;;;;5057311;28;20037;-68
2022/07/02 07:48:13;;;;;;;5.38;1.60;;;21.10;99.90;;;;;;5057176;28;20549;-68
2022/07/02 07:50:40;;;;;;;8.40;1.92;;;21.20;99.90;;;;;;5057229;28;20045;-69
2022/07/02 07:53:06;;;;;;;6.22;1.50;;;21.40;99.90;;;;;;5057191;28;20394;-68
2022/07/02 07:55:32;;;;;;;5.22;1.80;;;21.60;99.90;;;;;;5057038;28;20052;-67
2022/07/02 07:57:58;;;;;;;4.00;1.17;;;21.70;99.90;;;;;;5074844;28;20098;-70
2022/07/02 08:00:24;;;;;;;4.60;1.23;;;21.90;99.90;;;;;;5074731;28;20040;-67
2022/07/02 08:02:50;;;;;;;5.90;1.20;;;21.90;99.90;;;;;;5039999;28;20052;-69
2022/07/02 08:05:16;;;;;;;3.72;1.42;;;21.90;99.90;;;;;;5054188;28;20051;-66
2022/07/02 08:07:42;;;;;;;7.28;1.38;;;21.70;99.90;;;;;;5074457;28;20135;-70
2022/07/02 08:10:10;;;;;;;4.07;1.30;;;21.60;99.90;;;;;;5039797;28;20055;-70
2022/07/02 08:12:37;;;;;;;3.47;1.40;;;21.60;99.90;;;;;;5056764;28;20040;-70
2022/07/02 08:15:04;;;;;;;3.45;1.27;;;21.90;99.90;;;;;;5074328;28;20043;-69
2022/07/02 08:17:30;;;;;;;4.72;1.50;;;22.30;99.90;;;;;;5056475;28;20505;-68
2022/07/02 08:19:57;;;;;;;4.53;1.50;;;22.50;99.90;;;;;;5056522;28;20036;-68
2022/07/02 08:22:23;;;;;;;3.05;0.90;;;22.60;99.90;;;;;;5074554;28;20033;-68
2022/07/02 08:24:49;;;;;;;4.65;1.50;;;22.70;99.90;;;;;;5056552;28;20036;-69
2022/07/02 08:27:15;;;;;;;4.10;1.30;;;22.50;99.90;;;;;;5039777;28;20586;-69
2022/07/02 08:29:40;;;;;;;2.30;1.00;;;22.50;99.90;;;;;;5056303;28;20106;-69
2022/07/02 08:32:07;;;;;;;5.32;1.52;;;22.60;99.90;;;;;;5056150;28;20039;-69
2022/07/02 08:34:34;;;;;;;2.70;1.00;;;23.00;99.90;;;;;;5072304;28;20049;-71
2022/07/02 08:37:00;;;;;;;2.78;1.02;;;23.20;99.90;;;;;;5039663;28;20043;-71
2022/07/02 08:39:26;;;;;;;3.25;0.70;;;23.30;99.90;;;;;;5064772;28;20033;-68
2022/07/02 08:41:53;;;;;;;2.65;1.25;;;23.20;99.90;;;;;;5055615;28;20083;-70
2022/07/02 08:44:24;;;;;;;2.08;0.73;;;23.20;99.90;;;;;;5074381;28;20401;-70
2022/07/02 08:46:55;;;;;;;1.75;0.70;;;23.30;99.90;;;;;;5073965;28;20040;-70
2022/07/02 08:49:23;;;;;;;1.98;0.82;;;23.50;99.90;;;;;;5074162;28;20045;-69
2022/07/02 08:51:59;;;;;;;3.03;0.90;;;23.60;99.90;;;;;;5039427;28;20051;-71
2022/07/02 08:54:26;;;;;;;3.60;0.80;;;23.70;99.60;;;;;;5056342;28;20040;-69
2022/07/02 08:56:54;;;;;;;4.75;1.45;;;23.50;99.90;;;;;;5039429;28;20553;-68
2022/07/02 08:59:20;;;;;;;3.22;0.90;;;23.60;99.90;;;;;;5055995;28;20040;-68
2022/07/02 09:01:48;;;;;;;1.95;0.80;;;23.80;99.90;;;;;;5039166;28;20041;-68
2022/07/02 09:04:19;;;;;;;3.67;0.95;;;23.80;99.30;;;;;;5071501;28;20040;-68
2022/07/02 09:06:47;;;;;;;2.15;0.68;;;23.90;99.10;;;;;;5074036;28;20423;-68
2022/07/02 09:09:13;;;;;;;2.45;0.80;;;24.00;97.20;;;;;;5056011;28;20036;-69
2022/07/02 09:11:39;;;;;;;3.10;0.50;;;23.90;96.00;;;;;;5073726;28;20029;-70
2022/07/02 09:14:08;;;;;;;1.58;0.50;;;23.80;96.20;;;;;;5036542;28;20040;-71
2022/07/02 09:16:34;;;;;;;3.28;0.82;;;23.70;93.20;;;;;;5053586;28;20045;-70
2022/07/02 09:19:00;;;;;;;4.30;0.93;;;23.60;93.50;;;;;;5055680;28;20131;-71
2022/07/02 09:21:26;;;;;;;1.70;0.50;;;23.60;95.10;;;;;;5073520;28;20032;-71
2022/07/02 09:23:52;;;;;;;2.80;0.60;;;23.60;93.90;;;;;;5073652;28;20036;-71
2022/07/02 09:26:22;;;;;;;3.03;0.60;;;23.60;94.10;;;;;;5073477;28;20040;-73
2022/07/02 09:28:56;;;;;;;1.90;0.65;;;23.80;92.00;;;;;;5055706;28;20068;-71
2022/07/02 09:31:22;;;;;;;2.75;0.90;;;23.70;90.70;;;;;;5071677;28;20575;-68
2022/07/02 09:33:48;;;;;;;4.20;0.55;;;23.60;92.90;;;;;;5036628;28;20147;-69
2022/07/02 09:36:14;;;;;;;1.70;0.50;;;23.70;94.40;;;;;;5073374;28;20032;-69
2022/07/02 09:38:45;;;;;;;1.90;0.45;;;24.00;93.60;;;;;;5073279;28;20478;-72
2022/07/02 09:41:12;;;;;;;2.45;0.70;;;24.10;91.20;;;;;;5055130;28;20502;-70
2022/07/02 09:43:40;;;;;;;3.90;0.95;;;24.10;90.60;;;;;;5055478;28;20076;-69
2022/07/02 09:46:20;;;;;;;2.53;0.47;;;24.10;91.40;;;;;;5071147;28;20036;-67
2022/07/02 09:48:47;;;;;;;1.73;0.55;;;24.10;92.10;;;;;;5038084;28;20048;-69
2022/07/02 09:51:14;;;;;;;1.55;0.50;;;24.20;92.30;;;;;;5054833;28;20037;-71
2022/07/02 09:54:08;;;;;;;2.13;0.60;;;24.30;92.20;;;;;;5054081;28;20501;-69
2022/07/02 09:56:34;;;;;;;3.22;0.70;;;24.60;92.80;;;;;;5049650;28;20051;-68
2022/07/02 09:59:00;;;;;;;2.55;0.77;;;24.90;91.60;;;;;;5073076;28;20115;-75
2022/07/02 10:01:26;;;;;;;3.83;0.93;;;25.20;90.90;;;;;;5054825;28;20453;-70
2022/07/02 10:03:53;;;;;;;1.85;0.40;;;25.00;86.90;;;;;;5052245;28;20690;-71
2022/07/02 10:06:20;;;;;;;1.88;0.65;;;24.80;89.70;;;;;;5071945;28;20053;-68
2022/07/02 10:08:47;;;;;;;1.90;0.50;;;24.90;90.30;;;;;;5072330;28;20047;-68
2022/07/02 10:11:14;;;;;;;1.38;0.60;;;25.00;88.90;;;;;;5038006;28;20416;-69
2022/07/02 10:13:41;;;;;;;1.50;0.47;;;24.90;87.60;;;;;;5054718;28;20036;-69
2022/07/02 10:16:17;;;;;;;2.42;0.70;;;25.00;88.20;;;;;;5072271;28;20465;-69
2022/07/02 10:18:44;;;;;;;0.85;0.35;;;25.10;88.20;;;;;;5037896;28;20054;-71
2022/07/02 10:21:14;;;;;;;1.40;0.55;;;25.10;89.90;;;;;;5054281;28;20044;-71
2022/07/02 10:23:43;;;;;;;2.55;0.52;;;25.20;89.30;;;;;;5054653;28;20044;-70
2022/07/02 10:26:10;;;;;;;2.17;0.60;;;25.40;89.70;;;;;;5055022;28;20406;-75
2022/07/02 10:28:36;;;;;;;2.45;0.60;;;25.50;88.10;;;;;;5072916;28;20524;-75
2022/07/02 10:31:04;;;;;;;1.88;0.40;;;25.50;84.30;;;;;;5072798;28;20446;-70
2022/07/02 10:33:45;;;;;;;2.70;0.70;;;25.30;80.70;;;;;;5053013;28;20754;-71
2022/07/02 10:36:14;;;;;;;0.90;0.50;;;25.10;78.80;;;;;;5070247;28;20090;-71
2022/07/02 10:38:40;;;;;;;0.85;0.40;;;25.10;81.40;;;;;;5053937;28;20397;-71
2022/07/02 10:41:09;;;;;;;1.27;0.38;;;25.10;84.00;;;;;;5070184;28;20040;-74
2022/07/02 10:43:38;;;;;;;2.35;0.50;;;25.10;80.20;;;;;;5071046;28;20040;-74
2022/07/02 10:46:11;;;;;;;2.15;0.60;;;25.00;80.80;;;;;;5071577;28;20626;-74
2022/07/02 10:48:57;;;;;;;1.85;0.60;;;25.00;78.20;;;;;;5053144;28;20028;-71
2022/07/02 10:51:25;;;;;;;1.65;0.50;;;25.00;78.40;;;;;;5053427;28;20041;-74
2022/07/02 10:53:53;;;;;;;1.80;0.60;;;25.00;82.50;;;;;;5071266;28;20043;-71
2022/07/02 10:56:19;;;;;;;2.67;0.77;;;25.20;84.20;;;;;;5054321;28;20048;-71
2022/07/02 10:58:45;;;;;;;1.02;0.35;;;25.50;83.00;;;;;;5071819;28;20033;-71
2022/07/02 11:01:22;;;;;;;2.45;0.70;;;25.70;83.00;;;;;;5053296;28;20379;-71
2022/07/02 11:03:54;;;;;;;2.95;0.77;;;25.80;76.70;;;;;;5067049;28;20543;-70
2022/07/02 11:06:28;;;;;;;2.10;0.70;;;25.70;75.60;;;;;;5035069;28;20040;-74
2022/07/02 11:08:59;;;;;;;1.20;0.43;;;25.70;77.60;;;;;;5053397;28;20047;-74
2022/07/02 11:11:40;;;;;;;2.33;0.63;;;25.80;75.00;;;;;;5071761;28;20028;-71
2022/07/02 11:14:07;;;;;;;2.38;0.50;;;25.80;75.00;;;;;;5070058;28;20052;-73
2022/07/02 11:16:49;;;;;;;2.55;0.63;;;25.70;73.20;;;;;;5052886;28;20494;-69
2022/07/02 11:19:30;;;;;;;2.55;0.63;;;25.60;71.80;;;;;;5034226;28;20032;-68
2022/07/02 11:22:03;;;;;;;1.48;0.40;;;25.50;75.60;;;;;;5052578;28;20041;-71
2022/07/02 11:24:30;;;;;;;1.20;0.30;;;25.50;74.20;;;;;;5036278;28;20037;-71
2022/07/02 11:26:57;;;;;;;1.05;0.35;;;25.50;76.10;;;;;;5070768;28;20119;-69
2022/07/02 11:29:23;;;;;;;1.30;0.43;;;25.50;75.80;;;;;;5052783;28;20424;-71
2022/07/02 11:31:51;;;;;;;1.50;0.47;;;25.50;78.00;;;;;;5052919;28;20048;-70
2022/07/02 11:34:20;;;;;;;1.58;0.50;;;25.60;75.50;;;;;;5051015;28;20037;-70
2022/07/02 11:36:47;;;;;;;0.63;0.22;;;25.50;73.90;;;;;;5072454;28;20041;-73
2022/07/02 11:39:15;;;;;;;2.00;0.47;;;25.30;71.30;;;;;;5071445;28;20570;-69
2022/07/02 11:41:42;;;;;;;1.50;0.40;;;24.80;71.00;;;;;;5053340;28;20576;-70
2022/07/02 11:44:17;;;;;;;1.80;0.47;;;24.50;71.50;;;;;;5071085;28;20072;-70
2022/07/02 11:46:48;;;;;;;1.10;0.60;;;24.40;76.50;;;;;;5036978;28;20093;-69
2022/07/02 11:49:37;;;;;;;1.65;0.50;;;24.30;75.00;;;;;;5053094;28;20528;-69
2022/07/02 11:52:05;;;;;;;2.38;0.40;;;24.30;78.20;;;;;;5053005;28;20080;-71
2022/07/02 11:54:31;;;;;;;1.10;0.43;;;24.40;77.10;;;;;;5053689;28;20041;-71
2022/07/02 11:56:57;;;;;;;1.20;0.40;;;24.60;76.20;;;;;;5036921;28;20051;-78
2022/07/02 11:59:24;;;;;;;1.63;0.60;;;24.70;73.30;;;;;;5054057;28;20124;-70
2022/07/02 12:01:52;;;;;;;2.35;0.55;;;24.50;73.40;;;;;;5053629;28;20051;-73
2022/07/02 12:04:20;;;;;;;2.38;0.50;;;24.50;74.40;;;;;;5051275;28;20041;-71
2022/07/02 12:06:51;;;;;;;2.60;0.43;;;24.60;76.20;;;;;;5071239;28;20039;-69
2022/07/02 12:09:22;;;;;;;3.63;0.55;;;24.80;74.70;;;;;;5053153;28;20311;-70
2022/07/02 12:11:48;;;;;;;1.83;0.60;;;24.70;74.50;;;;;;5052895;28;20124;-68
2022/07/02 12:14:16;;;;;;;2.05;0.47;;;24.70;75.60;;;;;;5053021;28;20040;-69
2022/07/02 12:16:45;;;;;;;4.43;0.77;;;24.70;75.50;;;;;;5055775;28;20146;-70
2022/07/02 12:19:13;;;;;;;1.75;0.55;;;24.80;75.70;;;;;;5056532;28;20526;-70
2022/07/02 12:21:40;;;;;;;11.25;1.15;;;24.70;75.70;;;;;;5056547;28;20136;-71
2022/07/02 12:24:20;;;;;;;1.33;0.50;;;24.70;74.70;;;;;;5039961;28;20048;-73
2022/07/02 12:26:47;;;;;;;1.00;0.40;;;24.60;73.80;;;;;;5074485;28;20079;-68
2022/07/02 12:32:08;;;;;;;2.28;0.60;;;24.50;76.80;;;;;;5074233;28;20079;-70
2022/07/02 12:34:44;;;;;;;1.42;0.68;;;24.40;76.20;;;;;;5054111;28;20039;-68
2022/07/02 12:37:21;;;;;;;2.67;0.40;;;24.20;75.70;;;;;;5056256;28;20036;-70
2022/07/02 12:39:49;;;;;;;1.67;0.50;;;24.00;78.30;;;;;;5074456;28;20044;-73
2022/07/02 12:42:22;;;;;;;2.72;0.47;;;24.10;80.30;;;;;;5056165;28;20140;-70
2022/07/02 12:45:03;;;;;;;1.83;0.40;;;24.30;78.50;;;;;;5040472;28;20379;-70
2022/07/02 12:47:29;;;;;;;1.88;0.43;;;24.50;80.80;;;;;;5074120;28;20044;-70
2022/07/02 12:49:59;;;;;;;3.75;0.63;;;24.70;79.70;;;;;;5074427;28;20139;-72
2022/07/02 12:52:27;;;;;;;2.05;0.75;;;25.00;76.50;;;;;;5056907;28;20044;-71
2022/07/02 12:54:53;;;;;;;1.73;0.40;;;25.10;78.90;;;;;;5056223;28;20501;-71
2022/07/02 12:57:22;;;;;;;1.60;0.47;;;25.20;77.80;;;;;;5056243;28;20393;-73
2022/07/02 12:59:49;;;;;;;3.17;0.60;;;25.10;77.60;;;;;;5055850;28;20040;-70
2022/07/02 13:02:27;;;;;;;3.42;0.70;;;25.00;76.60;;;;;;5039135;28;20088;-71
2022/07/02 13:04:54;;;;;;;2.65;0.50;;;24.90;78.20;;;;;;5053578;28;20048;-68
2022/07/02 13:07:20;;;;;;;2.47;0.65;;;25.00;78.70;;;;;;5039099;28;20047;-70
2022/07/02 13:09:46;;;;;;;2.13;0.70;;;25.00;76.70;;;;;;5038958;28;20084;-74
2022/07/02 13:12:15;;;;;;;2.67;0.70;;;25.10;74.80;;;;;;5055949;28;20068;-72
2022/07/02 13:14:42;;;;;;;3.30;0.60;;;25.20;78.10;;;;;;5073563;28;20044;-70
2022/07/02 13:17:08;;;;;;;1.80;0.32;;;25.20;78.70;;;;;;5055754;28;20083;-71
2022/07/02 13:19:36;;;;;;;1.92;0.47;;;25.20;77.80;;;;;;5055695;28;20494;-72